createdAt,value
2016-12-12T00:00:56.190Z,0
2016-12-12T00:01:56.308Z,0
2016-12-12T00:02:56.254Z,0
2016-12-12T00:03:56.745Z,0
2016-12-12T00:04:56.285Z,0
2016-12-12T00:05:56.896Z,0
2016-12-12T00:06:56.231Z,0
2016-12-12T00:07:56.442Z,0
2016-12-12T00:08:56.314Z,0
2016-12-12T00:09:57.695Z,0
2016-12-12T00:10:59.255Z,0
2016-12-12T00:11:57.547Z,0
2016-12-12T00:12:56.715Z,0
2016-12-12T00:13:56.128Z,0
2016-12-12T00:14:56.154Z,0
2016-12-12T00:15:57.336Z,0
2016-12-12T00:16:57.153Z,0
2016-12-12T00:17:57.396Z,0
2016-12-12T00:18:56.490Z,0
2016-12-12T00:19:56.100Z,0
2016-12-12T00:20:56.564Z,0
2016-12-12T00:21:56.484Z,0
2016-12-12T00:22:56.361Z,0
2016-12-12T00:23:57.112Z,0
2016-12-12T00:24:57.130Z,0
2016-12-12T00:25:56.801Z,0
2016-12-12T00:26:57.241Z,0
2016-12-12T00:27:56.596Z,0
2016-12-12T00:28:56.722Z,0
2016-12-12T00:29:56.982Z,0
2016-12-12T00:30:56.071Z,0
2016-12-12T00:31:57.019Z,0
2016-12-12T00:32:57.721Z,0
2016-12-12T00:33:57.080Z,0
2016-12-12T00:34:56.451Z,0
2016-12-12T00:35:57.044Z,0
2016-12-12T00:36:56.852Z,0
2016-12-12T00:37:57.168Z,0
2016-12-12T00:38:58.792Z,0
2016-12-12T00:39:57.127Z,0
2016-12-12T00:40:56.926Z,0
2016-12-12T00:41:56.845Z,0
2016-12-12T00:42:56.578Z,0
2016-12-12T00:43:56.894Z,0
2016-12-12T00:44:57.337Z,0
2016-12-12T00:45:56.898Z,0
2016-12-12T00:46:57.163Z,0
2016-12-12T00:47:56.469Z,0
2016-12-12T00:48:57.392Z,0
2016-12-12T00:49:57.022Z,0
2016-12-12T00:50:56.777Z,0
2016-12-12T00:51:56.024Z,0
2016-12-12T00:52:57.024Z,0
2016-12-12T00:53:57.377Z,0
2016-12-12T00:54:57.614Z,0
2016-12-12T00:55:57.316Z,0
2016-12-12T00:56:56.836Z,0
2016-12-12T00:57:57.883Z,0
2016-12-12T00:58:57.358Z,0
2016-12-12T00:59:57.637Z,0
2016-12-12T01:00:57.683Z,0
2016-12-12T01:01:57.300Z,0
2016-12-12T01:02:57.459Z,0
2016-12-12T01:03:57.288Z,0
2016-12-12T01:04:57.513Z,0
2016-12-12T01:05:59.173Z,0
2016-12-12T01:06:57.967Z,0
2016-12-12T01:07:57.709Z,0
2016-12-12T01:08:57.185Z,0
2016-12-12T01:09:57.697Z,0
2016-12-12T01:10:57.033Z,0
2016-12-12T01:11:57.090Z,0
2016-12-12T01:12:57.507Z,0
2016-12-12T01:13:57.150Z,0
2016-12-12T01:14:57.740Z,0
2016-12-12T01:15:57.826Z,0
2016-12-12T01:16:57.589Z,0
2016-12-12T01:17:57.300Z,0
2016-12-12T01:18:57.344Z,0
2016-12-12T01:19:57.515Z,0
2016-12-12T01:20:57.639Z,0
2016-12-12T01:21:56.855Z,0
2016-12-12T01:22:58.605Z,0
2016-12-12T01:23:57.177Z,0
2016-12-12T01:24:57.571Z,0
2016-12-12T01:25:57.684Z,0
2016-12-12T01:26:58.677Z,0
2016-12-12T01:27:58.020Z,0
2016-12-12T01:28:57.509Z,0
2016-12-12T01:29:57.987Z,0
2016-12-12T01:30:57.786Z,0
2016-12-12T01:31:58.843Z,0
2016-12-12T01:32:57.563Z,0
2016-12-12T01:33:57.516Z,0
2016-12-12T01:34:57.487Z,0
2016-12-12T01:35:58.398Z,0
2016-12-12T01:36:57.506Z,0
2016-12-12T01:37:57.647Z,0
2016-12-12T01:38:57.431Z,0
2016-12-12T01:39:58.065Z,0
2016-12-12T01:40:57.426Z,0
2016-12-12T01:41:57.651Z,0
2016-12-12T01:42:57.198Z,0
2016-12-12T01:43:58.599Z,0
2016-12-12T01:44:58.679Z,0
2016-12-12T01:45:57.858Z,0
2016-12-12T01:46:57.356Z,0
2016-12-12T01:47:58.446Z,0
2016-12-12T01:48:57.544Z,0
2016-12-12T01:49:58.346Z,0
2016-12-12T01:50:57.330Z,0
2016-12-12T01:51:58.561Z,0
2016-12-12T01:52:58.840Z,0
2016-12-12T01:53:57.812Z,0
2016-12-12T01:54:58.476Z,0
2016-12-12T01:55:57.822Z,0
2016-12-12T01:56:58.535Z,0
2016-12-12T01:57:58.039Z,0
2016-12-12T01:58:58.572Z,0
2016-12-12T01:59:57.458Z,0
2016-12-12T02:00:58.245Z,0
2016-12-12T02:01:58.095Z,0
2016-12-12T02:02:58.297Z,0
2016-12-12T02:03:59.194Z,0
2016-12-12T02:04:57.781Z,0
2016-12-12T02:05:57.397Z,0
2016-12-12T02:06:59.093Z,0
2016-12-12T02:07:58.185Z,0
2016-12-12T02:08:58.089Z,0
2016-12-12T02:09:58.858Z,0
2016-12-12T02:10:58.081Z,0
2016-12-12T02:11:58.597Z,0
2016-12-12T02:12:58.875Z,0
2016-12-12T02:13:58.680Z,0
2016-12-12T02:14:57.649Z,0
2016-12-12T02:15:59.507Z,0
2016-12-12T02:16:58.149Z,0
2016-12-12T02:17:58.295Z,0
2016-12-12T02:18:58.511Z,0
2016-12-12T02:19:58.660Z,0
2016-12-12T02:20:58.514Z,0
2016-12-12T02:21:58.956Z,0
2016-12-12T02:22:58.321Z,0
2016-12-12T02:23:59.241Z,0
2016-12-12T02:24:59.132Z,0
2016-12-12T02:25:58.795Z,0
2016-12-12T02:26:58.017Z,0
2016-12-12T02:27:58.997Z,0
2016-12-12T02:28:59.200Z,0
2016-12-12T02:29:58.454Z,0
2016-12-12T02:30:58.321Z,0
2016-12-12T02:31:58.604Z,0
2016-12-12T02:32:59.184Z,0
2016-12-12T02:33:59.868Z,0
2016-12-12T02:34:57.878Z,0
2016-12-12T02:35:59.027Z,0
2016-12-12T02:36:58.871Z,0
2016-12-12T02:37:58.335Z,0
2016-12-12T02:38:59.668Z,0
2016-12-12T02:39:59.734Z,0
2016-12-12T02:40:59.356Z,0
2016-12-12T02:41:58.887Z,0
2016-12-12T02:43:00.723Z,0
2016-12-12T02:44:00.064Z,0
2016-12-12T02:44:59.498Z,0
2016-12-12T02:45:58.618Z,0
2016-12-12T02:46:58.935Z,0
2016-12-12T02:47:58.567Z,0
2016-12-12T02:48:58.798Z,0
2016-12-12T02:49:58.495Z,0
2016-12-12T02:50:58.297Z,0
2016-12-12T02:51:58.945Z,0
2016-12-12T02:52:58.540Z,0
2016-12-12T02:53:59.089Z,0
2016-12-12T02:54:58.906Z,0
2016-12-12T02:55:59.650Z,0
2016-12-12T02:56:58.477Z,0
2016-12-12T02:57:58.824Z,0
2016-12-12T02:58:59.091Z,0
2016-12-12T02:59:59.359Z,0
2016-12-12T03:00:58.547Z,0
2016-12-12T03:01:59.415Z,0
2016-12-12T03:02:59.246Z,0
2016-12-12T03:03:58.880Z,0
2016-12-12T03:04:59.537Z,0
2016-12-12T03:05:58.630Z,0
2016-12-12T03:06:59.837Z,0
2016-12-12T03:07:59.553Z,0
2016-12-12T03:08:59.311Z,0
2016-12-12T03:09:59.141Z,0
2016-12-12T03:10:58.706Z,0
2016-12-12T03:11:59.496Z,0
2016-12-12T03:12:59.643Z,0
2016-12-12T03:13:59.252Z,0
2016-12-12T03:14:58.624Z,0
2016-12-12T03:16:00.031Z,0
2016-12-12T03:16:58.698Z,0
2016-12-12T03:18:00.094Z,0
2016-12-12T03:18:59.597Z,0
2016-12-12T03:19:58.777Z,0
2016-12-12T03:20:59.808Z,0
2016-12-12T03:21:59.454Z,0
2016-12-12T03:22:59.245Z,0
2016-12-12T03:23:58.894Z,0
2016-12-12T03:24:58.729Z,0
2016-12-12T03:26:00.139Z,0
2016-12-12T03:26:58.616Z,0
2016-12-12T03:27:59.135Z,0
2016-12-12T03:28:58.679Z,0
2016-12-12T03:29:59.503Z,0
2016-12-12T03:30:59.997Z,0
2016-12-12T03:31:59.819Z,0
2016-12-12T03:32:59.117Z,0
2016-12-12T03:33:58.632Z,0
2016-12-12T03:34:59.111Z,0
2016-12-12T03:35:59.638Z,0
2016-12-12T03:36:59.585Z,0
2016-12-12T03:37:59.500Z,0
2016-12-12T03:39:00.524Z,0
2016-12-12T03:39:59.383Z,0
2016-12-12T03:40:59.832Z,0
2016-12-12T03:41:59.460Z,0
2016-12-12T03:42:59.372Z,0
2016-12-12T03:43:59.937Z,0
2016-12-12T03:44:59.392Z,0
2016-12-12T03:46:00.428Z,0
2016-12-12T03:46:59.399Z,0
2016-12-12T03:47:59.606Z,0
2016-12-12T03:49:00.960Z,0
2016-12-12T03:50:00.356Z,0
2016-12-12T03:51:00.210Z,0
2016-12-12T03:51:59.896Z,0
2016-12-12T03:53:00.113Z,0
2016-12-12T03:54:00.368Z,0
2016-12-12T03:54:59.464Z,0
2016-12-12T03:55:59.810Z,0
2016-12-12T03:56:59.795Z,0
2016-12-12T03:58:00.371Z,0
2016-12-12T03:58:59.169Z,0
2016-12-12T03:59:59.756Z,0
2016-12-12T04:00:59.396Z,0
2016-12-12T04:01:59.827Z,0
2016-12-12T04:02:59.875Z,0
2016-12-12T04:03:59.724Z,0
2016-12-12T04:05:00.018Z,0
2016-12-12T04:05:59.191Z,0
2016-12-12T04:07:00.095Z,0
2016-12-12T04:07:59.835Z,0
2016-12-12T04:09:00.361Z,0
2016-12-12T04:10:00.441Z,0
2016-12-12T04:11:00.073Z,0
2016-12-12T04:12:01.135Z,0
2016-12-12T04:13:00.649Z,0
2016-12-12T04:13:59.659Z,0
2016-12-12T04:14:59.868Z,0
2016-12-12T04:15:59.570Z,0
2016-12-12T04:17:00.802Z,0
2016-12-12T04:18:00.659Z,0
2016-12-12T04:19:00.403Z,0
2016-12-12T04:20:00.224Z,0
2016-12-12T04:21:00.844Z,0
2016-12-12T04:22:00.571Z,0
2016-12-12T04:23:00.496Z,0
2016-12-12T04:23:59.538Z,0
2016-12-12T04:25:00.196Z,0
2016-12-12T04:26:00.365Z,0
2016-12-12T04:26:59.918Z,0
2016-12-12T04:28:00.247Z,0
2016-12-12T04:29:00.822Z,0
2016-12-12T04:30:00.229Z,0
2016-12-12T04:31:01.194Z,0
2016-12-12T04:32:01.093Z,0
2016-12-12T04:33:00.502Z,0
2016-12-12T04:34:00.478Z,0
2016-12-12T04:35:00.013Z,0
2016-12-12T04:36:01.527Z,0
2016-12-12T04:37:00.206Z,0
2016-12-12T04:38:00.106Z,0
2016-12-12T04:38:59.779Z,0
2016-12-12T04:39:59.717Z,0
2016-12-12T04:41:01.463Z,0
2016-12-12T04:42:00.731Z,0
2016-12-12T04:43:01.697Z,0
2016-12-12T04:44:01.608Z,0
2016-12-12T04:45:00.279Z,0
2016-12-12T04:46:00.852Z,0
2016-12-12T04:46:59.920Z,0
2016-12-12T04:48:01.729Z,0
2016-12-12T04:49:00.477Z,0
2016-12-12T04:50:00.375Z,0
2016-12-12T04:51:00.218Z,0
2016-12-12T04:52:01.298Z,0
2016-12-12T04:53:00.446Z,0
2016-12-12T04:54:00.782Z,0
2016-12-12T04:55:00.255Z,0
2016-12-12T04:56:00.253Z,0
2016-12-12T04:57:01.632Z,0
2016-12-12T04:58:00.395Z,0
2016-12-12T04:59:00.713Z,0
2016-12-12T05:00:01.022Z,0
2016-12-12T05:01:01.123Z,0
2016-12-12T05:02:01.293Z,0
2016-12-12T05:03:01.309Z,0
2016-12-12T05:04:00.782Z,0
2016-12-12T05:05:01.441Z,0
2016-12-12T05:06:01.837Z,0
2016-12-12T05:07:00.468Z,0
2016-12-12T05:08:01.653Z,0
2016-12-12T05:09:03.286Z,0
2016-12-12T05:10:03.004Z,0
2016-12-12T05:11:04.688Z,0
2016-12-12T05:12:02.228Z,0
2016-12-12T05:13:03.028Z,0
2016-12-12T05:14:02.957Z,0
2016-12-12T05:15:03.809Z,0
2016-12-12T05:16:02.860Z,0
2016-12-12T05:17:02.173Z,0
2016-12-12T05:18:02.043Z,0
2016-12-12T05:19:02.198Z,0
2016-12-12T05:20:03.014Z,0
2016-12-12T05:21:02.399Z,0
2016-12-12T05:22:02.354Z,0
2016-12-12T05:23:03.705Z,0
2016-12-12T05:24:04.050Z,0
2016-12-12T05:25:03.660Z,0
2016-12-12T05:26:04.426Z,0
2016-12-12T05:27:03.261Z,0
2016-12-12T05:28:02.311Z,0
2016-12-12T05:29:03.513Z,0
2016-12-12T05:30:03.415Z,0
2016-12-12T05:31:03.229Z,0
2016-12-12T05:32:03.017Z,0
2016-12-12T05:33:02.313Z,0
2016-12-12T05:34:02.246Z,0
2016-12-12T05:35:04.380Z,0
2016-12-12T05:36:02.356Z,0
2016-12-12T05:37:02.618Z,0
2016-12-12T05:38:02.802Z,0
2016-12-12T05:39:02.679Z,0
2016-12-12T05:40:03.671Z,0
2016-12-12T05:41:02.482Z,0
2016-12-12T05:42:02.961Z,0
2016-12-12T05:43:02.614Z,0
2016-12-12T05:44:03.049Z,0
2016-12-12T05:45:03.526Z,0
2016-12-12T05:46:01.755Z,0
2016-12-12T05:47:03.540Z,0
2016-12-12T05:48:03.000Z,0
2016-12-12T05:49:02.449Z,0
2016-12-12T05:50:02.547Z,0
2016-12-12T05:51:02.928Z,0
2016-12-12T05:52:02.360Z,0
2016-12-12T05:53:02.556Z,0
2016-12-12T05:54:02.984Z,0
2016-12-12T05:55:02.767Z,0
2016-12-12T05:56:02.576Z,0
2016-12-12T05:57:03.018Z,0
2016-12-12T05:58:03.518Z,0
2016-12-12T05:59:03.743Z,0
2016-12-12T06:00:03.311Z,0
2016-12-12T06:01:02.680Z,0
2016-12-12T06:02:02.558Z,0
2016-12-12T06:03:02.728Z,0
2016-12-12T06:04:02.677Z,0
2016-12-12T06:05:04.131Z,0
2016-12-12T06:06:01.747Z,0
2016-12-12T06:07:02.679Z,0
2016-12-12T06:08:02.711Z,0
2016-12-12T06:09:02.377Z,0
2016-12-12T06:10:03.992Z,0
2016-12-12T06:11:03.986Z,0
2016-12-12T06:12:02.985Z,0
2016-12-12T06:13:01.718Z,0
2016-12-12T06:14:02.400Z,0
2016-12-12T06:15:04.528Z,0
2016-12-12T06:16:02.538Z,0
2016-12-12T06:17:04.966Z,0
2016-12-12T06:18:01.664Z,0
2016-12-12T06:19:02.890Z,0
2016-12-12T06:20:03.887Z,0
2016-12-12T06:21:02.952Z,0
2016-12-12T06:22:04.913Z,0
2016-12-12T06:23:04.682Z,0
2016-12-12T06:24:04.682Z,0
2016-12-12T06:25:04.996Z,0
2016-12-12T06:26:03.914Z,0
2016-12-12T06:27:02.897Z,0
2016-12-12T06:28:06.341Z,0
2016-12-12T06:29:02.875Z,0
2016-12-12T06:30:04.471Z,0
2016-12-12T06:31:04.025Z,0
2016-12-12T06:32:04.429Z,0
2016-12-12T06:33:03.957Z,0
2016-12-12T06:34:03.812Z,0
2016-12-12T06:35:04.352Z,0
2016-12-12T06:36:03.975Z,0
2016-12-12T06:37:04.471Z,0
2016-12-12T06:38:03.951Z,0
2016-12-12T06:39:03.651Z,0
2016-12-12T06:40:04.732Z,0
2016-12-12T06:41:02.916Z,0
2016-12-12T06:42:03.697Z,0
2016-12-12T06:43:03.841Z,0
2016-12-12T06:44:03.197Z,0
2016-12-12T06:45:02.631Z,0
2016-12-12T06:46:02.333Z,0
2016-12-12T06:47:02.846Z,0
2016-12-12T06:48:02.749Z,0
2016-12-12T06:51:03.195Z,0
2016-12-12T06:52:02.013Z,0
2016-12-12T06:53:02.523Z,0
2016-12-12T06:54:02.656Z,0
2016-12-12T06:55:03.182Z,0
2016-12-12T06:56:02.606Z,0
2016-12-12T06:57:02.302Z,0
2016-12-12T06:58:02.281Z,0
2016-12-12T06:59:02.672Z,0
2016-12-12T07:00:03.445Z,0
2016-12-12T07:01:03.650Z,0
2016-12-12T07:02:02.576Z,0
2016-12-12T07:03:02.767Z,0
2016-12-12T07:04:02.704Z,0
2016-12-12T07:05:03.666Z,0
2016-12-12T07:06:03.200Z,0
2016-12-12T07:07:04.150Z,0
2016-12-12T07:08:03.594Z,0
2016-12-12T07:09:03.273Z,5
2016-12-12T07:10:03.770Z,5
2016-12-12T07:11:03.481Z,5
2016-12-12T07:12:03.742Z,5
2016-12-12T07:13:03.812Z,5
2016-12-12T07:14:03.975Z,5
2016-12-12T07:15:04.466Z,10
2016-12-12T07:16:04.325Z,10
2016-12-12T07:17:03.920Z,10
2016-12-12T07:18:04.254Z,10
2016-12-12T07:19:04.438Z,10
2016-12-12T07:20:21.193Z,15
2016-12-12T07:21:03.517Z,15
2016-12-12T07:22:02.794Z,15
2016-12-12T07:23:02.897Z,15
2016-12-12T07:24:03.241Z,20
2016-12-12T07:25:04.069Z,20
2016-12-12T07:26:03.873Z,20
2016-12-12T07:27:22.189Z,20
2016-12-12T07:28:04.668Z,25
2016-12-12T07:29:03.610Z,25
2016-12-12T07:30:04.282Z,25
2016-12-12T07:31:04.954Z,30
2016-12-12T07:32:05.229Z,30
2016-12-12T07:33:04.587Z,30
2016-12-12T07:34:03.377Z,30
2016-12-12T07:35:06.329Z,30
2016-12-12T07:36:03.889Z,35
2016-12-12T07:37:03.895Z,40
2016-12-12T07:38:04.358Z,45
2016-12-12T07:39:04.941Z,50
2016-12-12T07:40:03.682Z,50
2016-12-12T07:41:03.965Z,55
2016-12-12T07:42:04.188Z,55
2016-12-12T07:43:02.859Z,50
2016-12-12T07:44:03.251Z,50
2016-12-12T07:45:03.955Z,50
2016-12-12T07:46:04.555Z,55
2016-12-12T07:47:03.222Z,60
2016-12-12T07:48:04.743Z,60
2016-12-12T07:49:04.030Z,65
2016-12-12T07:50:03.788Z,65
2016-12-12T07:51:04.165Z,65
2016-12-12T07:52:06.324Z,75
2016-12-12T07:53:06.043Z,75
2016-12-12T07:54:07.152Z,75
2016-12-12T07:55:04.039Z,70
2016-12-12T07:56:03.484Z,75
2016-12-12T07:57:04.202Z,75
2016-12-12T07:58:04.277Z,80
2016-12-12T07:59:04.479Z,80
2016-12-12T08:00:03.496Z,85
2016-12-12T08:01:02.995Z,85
2016-12-12T08:02:04.836Z,90
2016-12-12T08:03:03.666Z,95
2016-12-12T08:04:04.217Z,100
2016-12-12T08:05:04.927Z,95
2016-12-12T08:06:05.193Z,90
2016-12-12T08:07:04.449Z,90
2016-12-12T08:08:03.894Z,80
2016-12-12T08:09:03.562Z,75
2016-12-12T08:10:06.125Z,65
2016-12-12T08:11:04.450Z,60
2016-12-12T08:12:04.199Z,60
2016-12-12T08:13:03.699Z,60
2016-12-12T08:14:03.257Z,65
2016-12-12T08:15:04.295Z,70
2016-12-12T08:16:03.326Z,75
2016-12-12T08:17:04.499Z,75
2016-12-12T08:18:04.872Z,80
2016-12-12T08:19:04.896Z,75
2016-12-12T08:20:04.442Z,80
2016-12-12T08:21:03.520Z,75
2016-12-12T08:22:04.371Z,65
2016-12-12T08:23:04.435Z,65
2016-12-12T08:24:06.231Z,65
2016-12-12T08:25:03.728Z,65
2016-12-12T08:26:03.965Z,65
2016-12-12T08:27:04.365Z,75
2016-12-12T08:28:04.256Z,85
2016-12-12T08:29:03.988Z,85
2016-12-12T08:30:04.285Z,100
2016-12-12T08:31:04.596Z,105
2016-12-12T08:32:03.701Z,95
2016-12-12T08:33:05.265Z,90
2016-12-12T08:34:05.283Z,105
2016-12-12T08:35:04.937Z,110
2016-12-12T08:36:03.437Z,100
2016-12-12T08:37:04.224Z,100
2016-12-12T08:38:05.490Z,110
2016-12-12T08:39:03.897Z,110
2016-12-12T08:40:04.270Z,90
2016-12-12T08:41:04.792Z,80
2016-12-12T08:42:04.772Z,80
2016-12-12T08:43:04.218Z,75
2016-12-12T08:44:04.288Z,85
2016-12-12T08:45:05.228Z,95
2016-12-12T08:46:04.137Z,100
2016-12-12T08:47:04.302Z,110
2016-12-12T08:48:05.518Z,120
2016-12-12T08:49:04.584Z,140
2016-12-12T08:50:05.188Z,190
2016-12-12T08:51:04.163Z,220
2016-12-12T08:52:04.230Z,275
2016-12-12T08:53:03.983Z,290
2016-12-12T08:54:05.312Z,280
2016-12-12T08:55:04.481Z,270
2016-12-12T08:56:05.196Z,255
2016-12-12T08:57:04.590Z,255
2016-12-12T08:58:04.805Z,240
2016-12-12T08:59:04.825Z,225
2016-12-12T09:00:05.083Z,225
2016-12-12T09:01:05.411Z,225
2016-12-12T09:02:04.588Z,230
2016-12-12T09:03:05.148Z,220
2016-12-12T09:04:04.448Z,190
2016-12-12T09:05:06.195Z,190
2016-12-12T09:06:04.123Z,175
2016-12-12T09:07:04.965Z,160
2016-12-12T09:08:05.051Z,170
2016-12-12T09:09:03.991Z,170
2016-12-12T09:10:04.814Z,185
2016-12-12T09:11:04.260Z,190
2016-12-12T09:12:05.615Z,190
2016-12-12T09:13:04.432Z,195
2016-12-12T09:14:07.322Z,190
2016-12-12T09:15:04.463Z,200
2016-12-12T09:16:04.691Z,200
2016-12-12T09:17:05.001Z,190
2016-12-12T09:18:04.970Z,185
2016-12-12T09:19:05.840Z,185
2016-12-12T09:20:10.319Z,175
2016-12-12T09:21:05.280Z,175
2016-12-12T09:22:04.904Z,165
2016-12-12T09:23:05.399Z,165
2016-12-12T09:24:05.238Z,185
2016-12-12T09:25:05.123Z,180
2016-12-12T09:26:04.552Z,175
2016-12-12T09:27:05.291Z,200
2016-12-12T09:28:04.931Z,245
2016-12-12T09:29:04.590Z,255
2016-12-12T09:30:04.892Z,270
2016-12-12T09:31:04.586Z,290
2016-12-12T09:32:05.253Z,295
2016-12-12T09:33:04.665Z,285
2016-12-12T09:34:05.689Z,245
2016-12-12T09:35:05.085Z,210
2016-12-12T09:36:07.049Z,195
2016-12-12T09:37:05.360Z,205
2016-12-12T09:38:05.999Z,220
2016-12-12T09:39:05.968Z,200
2016-12-12T09:40:05.327Z,190
2016-12-12T09:41:05.372Z,220
2016-12-12T09:42:05.716Z,235
2016-12-12T09:43:04.994Z,235
2016-12-12T09:44:04.738Z,250
2016-12-12T09:45:04.751Z,245
2016-12-12T09:46:05.016Z,255
2016-12-12T09:47:06.435Z,270
2016-12-12T09:48:05.342Z,285
2016-12-12T09:49:06.210Z,290
2016-12-12T09:50:05.923Z,260
2016-12-12T09:51:05.487Z,240
2016-12-12T09:52:06.550Z,260
2016-12-12T09:53:06.288Z,300
2016-12-12T09:54:06.016Z,340
2016-12-12T09:55:06.288Z,360
2016-12-12T09:56:06.104Z,390
2016-12-12T09:57:05.806Z,370
2016-12-12T09:58:05.499Z,340
2016-12-12T09:59:05.435Z,340
2016-12-12T10:00:06.039Z,345
2016-12-12T10:01:06.207Z,380
2016-12-12T10:02:06.398Z,390
2016-12-12T10:03:05.709Z,395
2016-12-12T10:04:05.673Z,380
2016-12-12T10:05:06.531Z,370
2016-12-12T10:06:06.162Z,355
2016-12-12T10:07:05.790Z,350
2016-12-12T10:08:05.737Z,350
2016-12-12T10:09:06.262Z,360
2016-12-12T10:10:05.771Z,330
2016-12-12T10:11:06.411Z,320
2016-12-12T10:12:06.471Z,335
2016-12-12T10:13:05.873Z,345
2016-12-12T10:14:05.424Z,365
2016-12-12T10:15:05.760Z,400
2016-12-12T10:16:05.634Z,420
2016-12-12T10:17:06.366Z,435
2016-12-12T10:18:06.087Z,445
2016-12-12T10:19:05.640Z,430
2016-12-12T10:20:06.570Z,390
2016-12-12T10:21:06.775Z,390
2016-12-12T10:22:07.122Z,395
2016-12-12T10:23:05.672Z,375
2016-12-12T10:24:05.915Z,360
2016-12-12T10:25:05.450Z,360
2016-12-12T10:26:05.987Z,330
2016-12-12T10:27:05.988Z,315
2016-12-12T10:28:06.077Z,310
2016-12-12T10:29:06.243Z,305
2016-12-12T10:30:05.604Z,305
2016-12-12T10:31:06.566Z,320
2016-12-12T10:32:06.071Z,360
2016-12-12T10:33:06.429Z,370
2016-12-12T10:34:06.121Z,415
2016-12-12T10:35:05.687Z,405
2016-12-12T10:36:06.753Z,410
2016-12-12T10:37:07.135Z,430
2016-12-12T10:38:06.892Z,455
2016-12-12T10:39:06.579Z,480
2016-12-12T10:40:07.088Z,490
2016-12-12T10:41:06.929Z,520
2016-12-12T10:42:07.123Z,480
2016-12-12T10:43:05.666Z,430
2016-12-12T10:44:05.575Z,365
2016-12-12T10:45:07.066Z,340
2016-12-12T10:46:07.107Z,325
2016-12-12T10:47:06.598Z,345
2016-12-12T10:48:06.335Z,375
2016-12-12T10:49:06.125Z,360
2016-12-12T10:50:07.685Z,365
2016-12-12T10:51:05.919Z,340
2016-12-12T10:52:07.185Z,330
2016-12-12T10:53:05.757Z,360
2016-12-12T10:54:06.458Z,395
2016-12-12T10:55:07.643Z,410
2016-12-12T10:56:07.224Z,385
2016-12-12T10:57:05.884Z,380
2016-12-12T10:58:06.467Z,375
2016-12-12T10:59:06.975Z,350
2016-12-12T11:00:06.728Z,355
2016-12-12T11:01:06.961Z,365
2016-12-12T11:02:07.205Z,400
2016-12-12T11:03:08.079Z,430
2016-12-12T11:04:07.849Z,460
2016-12-12T11:05:07.522Z,425
2016-12-12T11:06:06.184Z,415
2016-12-12T11:07:07.050Z,410
2016-12-12T11:08:07.111Z,400
2016-12-12T11:09:06.780Z,380
2016-12-12T11:10:06.851Z,360
2016-12-12T11:11:07.247Z,340
2016-12-12T11:12:06.639Z,325
2016-12-12T11:13:06.209Z,335
2016-12-12T11:14:07.129Z,335
2016-12-12T11:15:07.205Z,375
2016-12-12T11:16:08.602Z,325
2016-12-12T11:17:06.423Z,330
2016-12-12T11:18:07.205Z,330
2016-12-12T11:19:07.372Z,340
2016-12-12T11:20:07.758Z,370
2016-12-12T11:21:07.678Z,400
2016-12-12T11:22:07.816Z,435
2016-12-12T11:23:06.891Z,460
2016-12-12T11:24:07.044Z,470
2016-12-12T11:25:07.701Z,455
2016-12-12T11:26:07.826Z,395
2016-12-12T11:27:06.893Z,380
2016-12-12T11:28:08.701Z,355
2016-12-12T11:29:07.534Z,320
2016-12-12T11:30:07.411Z,305
2016-12-12T11:31:08.439Z,340
2016-12-12T11:32:07.453Z,340
2016-12-12T11:33:08.136Z,325
2016-12-12T11:34:08.027Z,325
2016-12-12T11:35:06.678Z,340
2016-12-12T11:36:07.626Z,375
2016-12-12T11:37:08.139Z,440
2016-12-12T11:38:07.545Z,370
2016-12-12T11:39:07.830Z,305
2016-12-12T11:40:07.856Z,285
2016-12-12T11:41:07.523Z,265
2016-12-12T11:42:08.471Z,280
2016-12-12T11:43:08.176Z,295
2016-12-12T11:44:07.408Z,335
2016-12-12T11:45:07.605Z,335
2016-12-12T11:46:07.687Z,330
2016-12-12T11:47:06.565Z,285
2016-12-12T11:48:07.856Z,260
2016-12-12T11:49:07.588Z,255
2016-12-12T11:50:07.840Z,240
2016-12-12T11:51:06.647Z,220
2016-12-12T11:52:07.214Z,215
2016-12-12T11:53:07.527Z,220
2016-12-12T11:54:07.968Z,230
2016-12-12T11:55:06.860Z,240
2016-12-12T11:56:07.168Z,260
2016-12-12T11:57:07.760Z,250
2016-12-12T11:58:07.579Z,240
2016-12-12T11:59:08.432Z,270
2016-12-12T12:00:08.704Z,290
2016-12-12T12:01:07.613Z,265
2016-12-12T12:02:08.842Z,260
2016-12-12T12:03:08.377Z,270
2016-12-12T12:04:08.535Z,295
2016-12-12T12:05:07.671Z,305
2016-12-12T12:06:07.920Z,295
2016-12-12T12:07:07.716Z,295
2016-12-12T12:08:08.277Z,280
2016-12-12T12:09:08.172Z,270
2016-12-12T12:10:08.315Z,280
2016-12-12T12:11:08.216Z,280
2016-12-12T12:12:08.973Z,245
2016-12-12T12:13:07.262Z,215
2016-12-12T12:14:09.065Z,200
2016-12-12T12:15:10.556Z,195
2016-12-12T12:16:07.784Z,180
2016-12-12T12:17:08.012Z,175
2016-12-12T12:18:07.732Z,175
2016-12-12T12:19:09.207Z,185
2016-12-12T12:20:08.588Z,190
2016-12-12T12:21:09.224Z,185
2016-12-12T12:22:09.472Z,185
2016-12-12T12:23:07.919Z,215
2016-12-12T12:24:08.642Z,245
2016-12-12T12:25:08.032Z,260
2016-12-12T12:26:08.623Z,250
2016-12-12T12:27:08.433Z,220
2016-12-12T12:28:09.033Z,185
2016-12-12T12:29:08.952Z,165
2016-12-12T12:30:09.423Z,160
2016-12-12T12:31:09.193Z,175
2016-12-12T12:32:09.801Z,180
2016-12-12T12:33:08.861Z,180
2016-12-12T12:34:08.779Z,190
2016-12-12T12:35:09.393Z,195
2016-12-12T12:36:08.217Z,185
2016-12-12T12:37:08.072Z,170
2016-12-12T12:38:08.549Z,155
2016-12-12T12:39:08.938Z,130
2016-12-12T12:40:08.105Z,115
2016-12-12T12:41:09.824Z,115
2016-12-12T12:42:08.182Z,110
2016-12-12T12:43:08.496Z,115
2016-12-12T12:44:09.675Z,115
2016-12-12T12:45:07.710Z,110
2016-12-12T12:46:09.499Z,110
2016-12-12T12:47:08.383Z,105
2016-12-12T12:48:08.024Z,105
2016-12-12T12:49:08.095Z,105
2016-12-12T12:50:07.995Z,110
2016-12-12T12:51:08.762Z,110
2016-12-12T12:52:10.729Z,120
2016-12-12T12:53:11.988Z,120
2016-12-12T12:54:09.270Z,120
2016-12-12T12:55:08.732Z,115
2016-12-12T12:56:08.055Z,105
2016-12-12T12:57:08.109Z,105
2016-12-12T12:58:08.565Z,105
2016-12-12T12:59:08.825Z,110
2016-12-12T13:00:08.330Z,110
2016-12-12T13:01:08.889Z,115
2016-12-12T13:02:08.211Z,120
2016-12-12T13:03:09.882Z,120
2016-12-12T13:04:09.689Z,115
2016-12-12T13:05:07.602Z,110
2016-12-12T13:06:09.296Z,105
2016-12-12T13:07:09.608Z,95
2016-12-12T13:08:09.570Z,95
2016-12-12T13:09:10.711Z,95
2016-12-12T13:10:09.399Z,100
2016-12-12T13:11:08.965Z,105
2016-12-12T13:12:08.403Z,105
2016-12-12T13:13:08.989Z,95
2016-12-12T13:14:08.652Z,85
2016-12-12T13:15:08.642Z,80
2016-12-12T13:16:08.320Z,75
2016-12-12T13:17:09.228Z,65
2016-12-12T13:18:09.643Z,60
2016-12-12T13:19:09.729Z,55
2016-12-12T13:20:09.462Z,55
2016-12-12T13:21:09.692Z,50
2016-12-12T13:22:09.962Z,50
2016-12-12T13:23:09.810Z,45
2016-12-12T13:24:09.381Z,40
2016-12-12T13:25:08.760Z,45
2016-12-12T13:26:09.156Z,45
2016-12-12T13:27:08.580Z,45
2016-12-12T13:28:09.695Z,45
2016-12-12T13:29:09.724Z,40
2016-12-12T13:30:09.585Z,40
2016-12-12T13:31:08.831Z,45
2016-12-12T13:32:09.387Z,45
2016-12-12T13:33:09.289Z,50
2016-12-12T13:34:09.886Z,55
2016-12-12T13:35:08.973Z,60
2016-12-12T13:36:09.307Z,55
2016-12-12T13:37:08.602Z,50
2016-12-12T13:38:10.178Z,45
2016-12-12T13:39:08.853Z,45
2016-12-12T13:40:09.493Z,45
2016-12-12T13:41:09.589Z,40
2016-12-12T13:42:09.918Z,40
2016-12-12T13:43:09.697Z,40
2016-12-12T13:44:10.450Z,40
2016-12-12T13:45:10.235Z,40
2016-12-12T13:46:10.987Z,40
2016-12-12T13:47:09.826Z,40
2016-12-12T13:48:09.392Z,35
2016-12-12T13:49:09.622Z,35
2016-12-12T13:50:10.566Z,35
2016-12-12T13:51:09.511Z,35
2016-12-12T13:52:09.555Z,35
2016-12-12T13:53:10.523Z,30
2016-12-12T13:54:10.188Z,30
2016-12-12T13:55:10.642Z,30
2016-12-12T13:56:10.472Z,35
2016-12-12T13:57:09.693Z,40
2016-12-12T13:58:11.412Z,45
2016-12-12T13:59:10.972Z,55
2016-12-12T14:00:09.570Z,60
2016-12-12T14:01:10.231Z,70
2016-12-12T14:02:09.579Z,70
2016-12-12T14:03:09.967Z,75
2016-12-12T14:04:09.992Z,75
2016-12-12T14:05:10.185Z,85
2016-12-12T14:06:10.670Z,90
2016-12-12T14:07:09.554Z,95
2016-12-12T14:08:09.678Z,100
2016-12-12T14:09:10.252Z,100
2016-12-12T14:10:09.809Z,100
2016-12-12T14:11:09.382Z,100
2016-12-12T14:12:10.789Z,100
2016-12-12T14:13:11.238Z,100
2016-12-12T14:14:10.284Z,100
2016-12-12T14:15:09.734Z,105
2016-12-12T14:16:09.995Z,105
2016-12-12T14:17:09.971Z,105
2016-12-12T14:18:09.734Z,105
2016-12-12T14:19:09.746Z,105
2016-12-12T14:20:10.202Z,105
2016-12-12T14:21:09.787Z,105
2016-12-12T14:22:10.693Z,110
2016-12-12T14:23:11.200Z,100